sensor_id;sensor_type;location;lat;lon;timestamp;P1;durP1;ratioP1;P2;durP2;ratioP2
68976;SDS011;56029;52.568;13.588;2023-10-19T00:01:25;22.37;;;11.40;;
68976;SDS011;56029;52.568;13.588;2023-10-19T00:03:51;21.70;;;10.83;;
68976;SDS011;56029;52.568;13.588;2023-10-19T00:06:17;22.57;;;10.57;;
68976;SDS011;56029;52.568;13.588;2023-10-19T00:08:43;23.88;;;11.52;;
68976;SDS011;56029;52.568;13.588;2023-10-19T00:11:09;24.40;;;12.37;;
68976;SDS011;56029;52.568;13.588;2023-10-19T00:13:38;21.90;;;11.07;;
68976;SDS011;56029;52.568;13.588;2023-10-19T00:16:05;21.90;;;11.00;;
68976;SDS011;56029;52.568;13.588;2023-10-19T00:18:31;21.57;;;11.73;;
68976;SDS011;56029;52.568;13.588;2023-10-19T00:20:57;23.20;;;10.73;;
68976;SDS011;56029;52.568;13.588;2023-10-19T00:23:23;22.30;;;11.27;;
68976;SDS011;56029;52.568;13.588;2023-10-19T00:25:49;23.50;;;11.23;;
68976;SDS011;56029;52.568;13.588;2023-10-19T00:28:14;23.17;;;11.20;;
68976;SDS011;56029;52.568;13.588;2023-10-19T00:30:40;21.80;;;11.00;;
68976;SDS011;56029;52.568;13.588;2023-10-19T00:33:05;21.70;;;10.50;;
68976;SDS011;56029;52.568;13.588;2023-10-19T00:35:33;23.37;;;11.50;;
68976;SDS011;56029;52.568;13.588;2023-10-19T00:38:00;23.65;;;11.75;;
68976;SDS011;56029;52.568;13.588;2023-10-19T00:40:25;25.88;;;12.05;;
68976;SDS011;56029;52.568;13.588;2023-10-19T00:42:51;21.70;;;11.43;;
68976;SDS011;56029;52.568;13.588;2023-10-19T00:45:16;22.00;;;11.03;;
68976;SDS011;56029;52.568;13.588;2023-10-19T00:47:42;23.48;;;11.13;;
68976;SDS011;56029;52.568;13.588;2023-10-19T00:50:07;30.30;;;11.70;;
68976;SDS011;56029;52.568;13.588;2023-10-19T00:52:34;25.42;;;11.23;;
68976;SDS011;56029;52.568;13.588;2023-10-19T00:55:00;25.33;;;11.17;;
68976;SDS011;56029;52.568;13.588;2023-10-19T00:57:25;26.33;;;11.67;;
68976;SDS011;56029;52.568;13.588;2023-10-19T00:59:51;24.17;;;11.50;;
68976;SDS011;56029;52.568;13.588;2023-10-19T01:02:17;23.20;;;11.07;;
68976;SDS011;56029;52.568;13.588;2023-10-19T01:04:43;26.67;;;12.03;;
68976;SDS011;56029;52.568;13.588;2023-10-19T01:07:10;23.00;;;11.13;;
68976;SDS011;56029;52.568;13.588;2023-10-19T01:09:35;29.10;;;11.93;;
68976;SDS011;56029;52.568;13.588;2023-10-19T01:12:02;22.40;;;10.90;;
68976;SDS011;56029;52.568;13.588;2023-10-19T01:14:28;23.35;;;11.88;;
68976;SDS011;56029;52.568;13.588;2023-10-19T01:16:53;24.20;;;11.47;;
68976;SDS011;56029;52.568;13.588;2023-10-19T01:19:19;23.40;;;11.70;;
68976;SDS011;56029;52.568;13.588;2023-10-19T01:21:44;24.70;;;11.13;;
68976;SDS011;56029;52.568;13.588;2023-10-19T01:24:10;24.63;;;12.03;;
68976;SDS011;56029;52.568;13.588;2023-10-19T01:26:35;24.27;;;11.83;;
68976;SDS011;56029;52.568;13.588;2023-10-19T01:29:01;23.67;;;11.63;;
68976;SDS011;56029;52.568;13.588;2023-10-19T01:31:26;23.13;;;11.27;;
68976;SDS011;56029;52.568;13.588;2023-10-19T01:33:52;25.30;;;11.80;;
68976;SDS011;56029;52.568;13.588;2023-10-19T01:36:17;23.80;;;11.27;;
68976;SDS011;56029;52.568;13.588;2023-10-19T01:38:43;23.67;;;11.60;;
68976;SDS011;56029;52.568;13.588;2023-10-19T01:41:09;24.95;;;12.48;;
68976;SDS011;56029;52.568;13.588;2023-10-19T01:43:34;23.23;;;11.30;;
68976;SDS011;56029;52.568;13.588;2023-10-19T01:46:01;26.50;;;12.20;;
68976;SDS011;56029;52.568;13.588;2023-10-19T01:48:27;24.38;;;11.82;;
68976;SDS011;56029;52.568;13.588;2023-10-19T01:50:52;23.23;;;11.90;;
68976;SDS011;56029;52.568;13.588;2023-10-19T01:53:18;23.13;;;11.77;;
68976;SDS011;56029;52.568;13.588;2023-10-19T01:55:44;22.40;;;11.83;;
68976;SDS011;56029;52.568;13.588;2023-10-19T01:58:09;23.23;;;12.45;;
68976;SDS011;56029;52.568;13.588;2023-10-19T02:00:35;22.33;;;11.23;;
68976;SDS011;56029;52.568;13.588;2023-10-19T02:03:00;24.40;;;11.87;;
68976;SDS011;56029;52.568;13.588;2023-10-19T02:05:27;23.45;;;11.95;;
68976;SDS011;56029;52.568;13.588;2023-10-19T02:07:52;23.67;;;11.60;;
68976;SDS011;56029;52.568;13.588;2023-10-19T02:10:18;25.70;;;12.10;;
68976;SDS011;56029;52.568;13.588;2023-10-19T02:12:43;26.43;;;11.90;;
68976;SDS011;56029;52.568;13.588;2023-10-19T02:15:09;22.93;;;12.10;;
68976;SDS011;56029;52.568;13.588;2023-10-19T02:17:34;24.73;;;12.43;;
68976;SDS011;56029;52.568;13.588;2023-10-19T02:20:00;24.80;;;12.00;;
68976;SDS011;56029;52.568;13.588;2023-10-19T02:22:25;24.43;;;12.10;;
68976;SDS011;56029;52.568;13.588;2023-10-19T02:24:51;23.17;;;12.35;;
68976;SDS011;56029;52.568;13.588;2023-10-19T02:27:16;23.47;;;12.17;;
68976;SDS011;56029;52.568;13.588;2023-10-19T02:29:42;24.63;;;12.30;;
68976;SDS011;56029;52.568;13.588;2023-10-19T02:32:07;24.73;;;12.30;;
68976;SDS011;56029;52.568;13.588;2023-10-19T02:34:33;24.42;;;12.55;;
68976;SDS011;56029;52.568;13.588;2023-10-19T02:36:58;26.67;;;12.80;;
68976;SDS011;56029;52.568;13.588;2023-10-19T02:39:24;25.27;;;12.75;;
68976;SDS011;56029;52.568;13.588;2023-10-19T02:41:49;26.73;;;12.57;;
68976;SDS011;56029;52.568;13.588;2023-10-19T02:44:16;27.73;;;12.53;;
68976;SDS011;56029;52.568;13.588;2023-10-19T02:46:45;24.65;;;12.18;;
68976;SDS011;56029;52.568;13.588;2023-10-19T02:49:12;23.17;;;12.00;;
68976;SDS011;56029;52.568;13.588;2023-10-19T02:51:39;24.20;;;11.82;;
68976;SDS011;56029;52.568;13.588;2023-10-19T02:54:06;23.77;;;12.57;;
68976;SDS011;56029;52.568;13.588;2023-10-19T02:56:33;24.77;;;12.27;;
68976;SDS011;56029;52.568;13.588;2023-10-19T02:58:59;25.48;;;12.27;;
68976;SDS011;56029;52.568;13.588;2023-10-19T03:01:24;26.37;;;11.80;;
68976;SDS011;56029;52.568;13.588;2023-10-19T03:03:54;26.95;;;13.27;;
68976;SDS011;56029;52.568;13.588;2023-10-19T03:06:23;23.43;;;11.87;;
68976;SDS011;56029;52.568;13.588;2023-10-19T03:08:49;26.88;;;12.40;;
68976;SDS011;56029;52.568;13.588;2023-10-19T03:11:15;25.48;;;12.73;;
68976;SDS011;56029;52.568;13.588;2023-10-19T03:13:40;28.23;;;12.23;;
68976;SDS011;56029;52.568;13.588;2023-10-19T03:16:06;27.38;;;12.63;;
68976;SDS011;56029;52.568;13.588;2023-10-19T03:18:33;24.13;;;12.20;;
68976;SDS011;56029;52.568;13.588;2023-10-19T03:21:00;28.73;;;13.02;;
68976;SDS011;56029;52.568;13.588;2023-10-19T03:23:29;25.55;;;12.55;;
68976;SDS011;56029;52.568;13.588;2023-10-19T03:25:55;25.13;;;12.40;;
68976;SDS011;56029;52.568;13.588;2023-10-19T03:28:21;24.77;;;11.98;;
68976;SDS011;56029;52.568;13.588;2023-10-19T03:30:46;24.50;;;12.13;;
68976;SDS011;56029;52.568;13.588;2023-10-19T03:33:12;27.35;;;13.45;;
68976;SDS011;56029;52.568;13.588;2023-10-19T03:35:37;29.30;;;12.57;;
68976;SDS011;56029;52.568;13.588;2023-10-19T03:38:04;24.25;;;13.10;;
68976;SDS011;56029;52.568;13.588;2023-10-19T03:40:30;26.70;;;12.77;;
68976;SDS011;56029;52.568;13.588;2023-10-19T03:42:55;24.43;;;12.80;;
68976;SDS011;56029;52.568;13.588;2023-10-19T03:45:21;25.07;;;12.93;;
68976;SDS011;56029;52.568;13.588;2023-10-19T03:47:46;27.50;;;14.13;;
68976;SDS011;56029;52.568;13.588;2023-10-19T03:50:12;26.30;;;12.57;;
68976;SDS011;56029;52.568;13.588;2023-10-19T03:52:37;24.77;;;13.13;;
68976;SDS011;56029;52.568;13.588;2023-10-19T03:55:03;26.93;;;13.50;;
68976;SDS011;56029;52.568;13.588;2023-10-19T03:57:29;26.10;;;12.73;;
68976;SDS011;56029;52.568;13.588;2023-10-19T03:59:55;26.90;;;13.67;;
68976;SDS011;56029;52.568;13.588;2023-10-19T04:02:21;25.35;;;13.55;;
68976;SDS011;56029;52.568;13.588;2023-10-19T04:04:46;27.67;;;12.80;;
68976;SDS011;56029;52.568;13.588;2023-10-19T04:07:13;26.67;;;13.68;;
68976;SDS011;56029;52.568;13.588;2023-10-19T04:09:39;27.20;;;13.48;;
68976;SDS011;56029;52.568;13.588;2023-10-19T04:12:05;27.67;;;14.70;;
68976;SDS011;56029;52.568;13.588;2023-10-19T04:14:30;28.70;;;13.75;;
68976;SDS011;56029;52.568;13.588;2023-10-19T04:16:56;29.93;;;14.07;;
68976;SDS011;56029;52.568;13.588;2023-10-19T04:19:21;29.40;;;14.68;;
68976;SDS011;56029;52.568;13.588;2023-10-19T04:21:47;27.70;;;13.80;;
68976;SDS011;56029;52.568;13.588;2023-10-19T04:24:13;28.67;;;13.63;;
68976;SDS011;56029;52.568;13.588;2023-10-19T04:26:39;26.83;;;13.45;;
68976;SDS011;56029;52.568;13.588;2023-10-19T04:29:05;28.23;;;14.57;;
68976;SDS011;56029;52.568;13.588;2023-10-19T04:31:32;27.77;;;13.98;;
68976;SDS011;56029;52.568;13.588;2023-10-19T04:33:58;28.00;;;14.17;;
68976;SDS011;56029;52.568;13.588;2023-10-19T04:36:23;31.63;;;14.33;;
68976;SDS011;56029;52.568;13.588;2023-10-19T04:38:49;29.77;;;14.10;;
68976;SDS011;56029;52.568;13.588;2023-10-19T04:41:14;30.73;;;14.50;;
68976;SDS011;56029;52.568;13.588;2023-10-19T04:43:40;30.40;;;15.00;;
68976;SDS011;56029;52.568;13.588;2023-10-19T04:46:06;30.20;;;14.20;;
68976;SDS011;56029;52.568;13.588;2023-10-19T04:48:32;28.17;;;14.00;;
68976;SDS011;56029;52.568;13.588;2023-10-19T04:50:58;26.07;;;13.93;;
68976;SDS011;56029;52.568;13.588;2023-10-19T04:53:24;27.77;;;14.20;;
68976;SDS011;56029;52.568;13.588;2023-10-19T04:55:49;30.73;;;14.32;;
68976;SDS011;56029;52.568;13.588;2023-10-19T04:58:15;29.60;;;14.70;;
68976;SDS011;56029;52.568;13.588;2023-10-19T05:00:40;30.83;;;14.13;;
68976;SDS011;56029;52.568;13.588;2023-10-19T05:03:06;28.70;;;13.98;;
68976;SDS011;56029;52.568;13.588;2023-10-19T05:05:31;29.43;;;13.90;;
68976;SDS011;56029;52.568;13.588;2023-10-19T05:07:57;32.13;;;14.40;;
68976;SDS011;56029;52.568;13.588;2023-10-19T05:10:22;29.63;;;14.37;;
68976;SDS011;56029;52.568;13.588;2023-10-19T05:12:48;28.50;;;13.97;;
68976;SDS011;56029;52.568;13.588;2023-10-19T05:15:13;28.70;;;14.30;;
68976;SDS011;56029;52.568;13.588;2023-10-19T05:17:39;28.53;;;14.53;;
68976;SDS011;56029;52.568;13.588;2023-10-19T05:20:05;32.20;;;15.07;;
68976;SDS011;56029;52.568;13.588;2023-10-19T05:22:31;29.90;;;14.43;;
68976;SDS011;56029;52.568;13.588;2023-10-19T05:24:56;28.07;;;14.33;;
68976;SDS011;56029;52.568;13.588;2023-10-19T05:27:22;27.70;;;14.75;;
68976;SDS011;56029;52.568;13.588;2023-10-19T05:29:48;31.47;;;15.17;;
68976;SDS011;56029;52.568;13.588;2023-10-19T05:32:14;27.08;;;14.13;;
68976;SDS011;56029;52.568;13.588;2023-10-19T05:34:39;31.87;;;15.37;;
68976;SDS011;56029;52.568;13.588;2023-10-19T05:37:05;30.05;;;14.77;;
68976;SDS011;56029;52.568;13.588;2023-10-19T05:39:31;28.07;;;14.77;;
68976;SDS011;56029;52.568;13.588;2023-10-19T05:41:56;30.63;;;15.13;;
68976;SDS011;56029;52.568;13.588;2023-10-19T05:44:22;30.07;;;15.30;;
68976;SDS011;56029;52.568;13.588;2023-10-19T05:46:47;31.00;;;16.00;;
68976;SDS011;56029;52.568;13.588;2023-10-19T05:49:13;31.77;;;15.40;;
68976;SDS011;56029;52.568;13.588;2023-10-19T05:51:38;29.67;;;15.10;;
68976;SDS011;56029;52.568;13.588;2023-10-19T05:54:04;32.20;;;16.00;;
68976;SDS011;56029;52.568;13.588;2023-10-19T05:56:30;30.30;;;15.60;;
68976;SDS011;56029;52.568;13.588;2023-10-19T05:58:56;30.13;;;15.10;;
68976;SDS011;56029;52.568;13.588;2023-10-19T06:01:23;29.33;;;14.82;;
68976;SDS011;56029;52.568;13.588;2023-10-19T06:03:49;31.60;;;15.83;;
68976;SDS011;56029;52.568;13.588;2023-10-19T06:06:14;30.63;;;15.17;;
68976;SDS011;56029;52.568;13.588;2023-10-19T06:08:40;29.47;;;15.00;;
68976;SDS011;56029;52.568;13.588;2023-10-19T06:11:06;30.45;;;14.80;;
68976;SDS011;56029;52.568;13.588;2023-10-19T06:13:31;32.47;;;15.00;;
68976;SDS011;56029;52.568;13.588;2023-10-19T06:15:57;31.77;;;15.25;;
68976;SDS011;56029;52.568;13.588;2023-10-19T06:18:23;32.23;;;16.60;;
68976;SDS011;56029;52.568;13.588;2023-10-19T06:20:48;29.50;;;14.63;;
68976;SDS011;56029;52.568;13.588;2023-10-19T06:23:14;29.58;;;14.60;;
68976;SDS011;56029;52.568;13.588;2023-10-19T06:25:39;31.40;;;15.90;;
68976;SDS011;56029;52.568;13.588;2023-10-19T06:28:05;29.50;;;15.15;;
68976;SDS011;56029;52.568;13.588;2023-10-19T06:30:31;31.77;;;15.17;;
68976;SDS011;56029;52.568;13.588;2023-10-19T06:32:57;30.02;;;14.77;;
68976;SDS011;56029;52.568;13.588;2023-10-19T06:35:23;30.75;;;15.43;;
68976;SDS011;56029;52.568;13.588;2023-10-19T06:37:49;28.07;;;15.20;;
68976;SDS011;56029;52.568;13.588;2023-10-19T06:40:15;28.67;;;15.33;;
68976;SDS011;56029;52.568;13.588;2023-10-19T06:42:41;31.60;;;15.52;;
68976;SDS011;56029;52.568;13.588;2023-10-19T06:45:07;35.15;;;17.52;;
68976;SDS011;56029;52.568;13.588;2023-10-19T06:47:33;34.25;;;17.23;;
68976;SDS011;56029;52.568;13.588;2023-10-19T06:49:59;31.00;;;15.47;;
68976;SDS011;56029;52.568;13.588;2023-10-19T06:52:24;33.70;;;16.05;;
68976;SDS011;56029;52.568;13.588;2023-10-19T06:54:50;31.73;;;15.83;;
68976;SDS011;56029;52.568;13.588;2023-10-19T06:57:15;32.67;;;16.93;;
68976;SDS011;56029;52.568;13.588;2023-10-19T06:59:41;31.70;;;15.20;;
68976;SDS011;56029;52.568;13.588;2023-10-19T07:02:06;30.23;;;15.50;;
68976;SDS011;56029;52.568;13.588;2023-10-19T07:04:32;34.40;;;17.00;;
68976;SDS011;56029;52.568;13.588;2023-10-19T07:06:57;31.03;;;15.93;;
68976;SDS011;56029;52.568;13.588;2023-10-19T07:09:23;33.88;;;16.20;;
68976;SDS011;56029;52.568;13.588;2023-10-19T07:11:49;33.60;;;15.87;;
68976;SDS011;56029;52.568;13.588;2023-10-19T07:14:15;31.92;;;15.27;;
68976;SDS011;56029;52.568;13.588;2023-10-19T07:16:40;28.93;;;14.90;;
68976;SDS011;56029;52.568;13.588;2023-10-19T07:19:06;30.97;;;15.33;;
68976;SDS011;56029;52.568;13.588;2023-10-19T07:21:31;30.17;;;15.55;;
68976;SDS011;56029;52.568;13.588;2023-10-19T07:23:57;32.10;;;15.07;;
68976;SDS011;56029;52.568;13.588;2023-10-19T07:26:22;29.17;;;14.82;;
68976;SDS011;56029;52.568;13.588;2023-10-19T07:28:48;30.00;;;15.70;;
68976;SDS011;56029;52.568;13.588;2023-10-19T07:31:13;32.20;;;16.03;;
68976;SDS011;56029;52.568;13.588;2023-10-19T07:33:39;32.20;;;15.13;;
68976;SDS011;56029;52.568;13.588;2023-10-19T07:36:11;31.33;;;15.75;;
68976;SDS011;56029;52.568;13.588;2023-10-19T07:38:37;30.85;;;15.80;;
68976;SDS011;56029;52.568;13.588;2023-10-19T07:41:03;29.53;;;15.40;;
68976;SDS011;56029;52.568;13.588;2023-10-19T07:43:28;28.47;;;15.43;;
68976;SDS011;56029;52.568;13.588;2023-10-19T07:45:54;30.55;;;15.32;;
68976;SDS011;56029;52.568;13.588;2023-10-19T07:48:19;29.57;;;15.60;;
68976;SDS011;56029;52.568;13.588;2023-10-19T07:50:45;27.87;;;14.50;;
68976;SDS011;56029;52.568;13.588;2023-10-19T07:53:10;27.13;;;15.00;;
68976;SDS011;56029;52.568;13.588;2023-10-19T07:55:36;30.75;;;14.93;;
68976;SDS011;56029;52.568;13.588;2023-10-19T07:58:01;30.47;;;15.07;;
68976;SDS011;56029;52.568;13.588;2023-10-19T08:00:27;29.75;;;15.70;;
68976;SDS011;56029;52.568;13.588;2023-10-19T08:02:52;30.77;;;14.63;;
68976;SDS011;56029;52.568;13.588;2023-10-19T08:05:18;31.00;;;15.07;;
68976;SDS011;56029;52.568;13.588;2023-10-19T08:07:44;29.83;;;14.70;;
68976;SDS011;56029;52.568;13.588;2023-10-19T08:10:10;29.70;;;14.10;;
68976;SDS011;56029;52.568;13.588;2023-10-19T08:12:36;30.90;;;15.02;;
68976;SDS011;56029;52.568;13.588;2023-10-19T08:15:03;29.25;;;14.82;;
68976;SDS011;56029;52.568;13.588;2023-10-19T08:17:29;29.60;;;14.93;;
68976;SDS011;56029;52.568;13.588;2023-10-19T08:19:55;30.63;;;14.90;;
68976;SDS011;56029;52.568;13.588;2023-10-19T08:22:21;28.48;;;14.48;;
68976;SDS011;56029;52.568;13.588;2023-10-19T08:24:46;29.17;;;15.67;;
68976;SDS011;56029;52.568;13.588;2023-10-19T08:27:12;32.83;;;15.80;;
68976;SDS011;56029;52.568;13.588;2023-10-19T08:29:38;31.80;;;15.63;;
68976;SDS011;56029;52.568;13.588;2023-10-19T08:32:04;28.50;;;14.32;;
68976;SDS011;56029;52.568;13.588;2023-10-19T08:34:33;29.33;;;15.30;;
68976;SDS011;56029;52.568;13.588;2023-10-19T08:36:59;30.63;;;14.90;;
68976;SDS011;56029;52.568;13.588;2023-10-19T08:39:25;30.80;;;15.60;;
68976;SDS011;56029;52.568;13.588;2023-10-19T08:41:50;30.47;;;15.20;;
68976;SDS011;56029;52.568;13.588;2023-10-19T08:44:16;28.70;;;14.40;;
68976;SDS011;56029;52.568;13.588;2023-10-19T08:46:42;32.13;;;15.00;;
68976;SDS011;56029;52.568;13.588;2023-10-19T08:49:09;29.70;;;15.20;;
68976;SDS011;56029;52.568;13.588;2023-10-19T08:51:38;29.98;;;15.20;;
68976;SDS011;56029;52.568;13.588;2023-10-19T08:54:05;30.48;;;14.85;;
68976;SDS011;56029;52.568;13.588;2023-10-19T08:56:31;29.13;;;15.27;;
68976;SDS011;56029;52.568;13.588;2023-10-19T08:58:57;34.40;;;15.32;;
68976;SDS011;56029;52.568;13.588;2023-10-19T09:01:22;31.40;;;15.63;;
68976;SDS011;56029;52.568;13.588;2023-10-19T09:03:48;26.58;;;15.32;;
68976;SDS011;56029;52.568;13.588;2023-10-19T09:06:13;30.37;;;15.43;;
68976;SDS011;56029;52.568;13.588;2023-10-19T09:08:40;31.73;;;15.53;;
68976;SDS011;56029;52.568;13.588;2023-10-19T09:11:08;29.38;;;15.57;;
68976;SDS011;56029;52.568;13.588;2023-10-19T09:13:45;27.77;;;15.13;;
68976;SDS011;56029;52.568;13.588;2023-10-19T09:16:21;32.72;;;15.75;;
68976;SDS011;56029;52.568;13.588;2023-10-19T09:18:47;30.92;;;15.85;;
68976;SDS011;56029;52.568;13.588;2023-10-19T09:21:17;31.27;;;15.50;;
68976;SDS011;56029;52.568;13.588;2023-10-19T09:23:43;28.17;;;14.82;;
68976;SDS011;56029;52.568;13.588;2023-10-19T09:26:09;28.93;;;14.30;;
68976;SDS011;56029;52.568;13.588;2023-10-19T09:28:35;26.77;;;14.70;;
68976;SDS011;56029;52.568;13.588;2023-10-19T09:31:01;31.13;;;15.15;;
68976;SDS011;56029;52.568;13.588;2023-10-19T09:33:27;28.70;;;15.33;;
68976;SDS011;56029;52.568;13.588;2023-10-19T09:35:52;28.42;;;14.70;;
68976;SDS011;56029;52.568;13.588;2023-10-19T09:38:18;31.50;;;15.43;;
68976;SDS011;56029;52.568;13.588;2023-10-19T09:40:45;27.50;;;14.93;;
68976;SDS011;56029;52.568;13.588;2023-10-19T09:43:14;28.65;;;14.35;;
68976;SDS011;56029;52.568;13.588;2023-10-19T09:45:41;26.65;;;14.95;;
68976;SDS011;56029;52.568;13.588;2023-10-19T09:48:07;28.57;;;15.07;;
68976;SDS011;56029;52.568;13.588;2023-10-19T09:50:33;31.42;;;15.57;;
68976;SDS011;56029;52.568;13.588;2023-10-19T09:52:59;28.08;;;14.80;;
68976;SDS011;56029;52.568;13.588;2023-10-19T09:55:27;29.50;;;15.30;;
68976;SDS011;56029;52.568;13.588;2023-10-19T09:57:58;28.13;;;14.60;;
68976;SDS011;56029;52.568;13.588;2023-10-19T10:00:27;28.02;;;15.50;;
68976;SDS011;56029;52.568;13.588;2023-10-19T10:02:53;29.20;;;15.43;;
68976;SDS011;56029;52.568;13.588;2023-10-19T10:10:47;31.67;;;16.57;;
68976;SDS011;56029;52.568;13.588;2023-10-19T10:15:55;28.60;;;13.93;;
68976;SDS011;56029;52.568;13.588;2023-10-19T10:18:24;31.00;;;15.50;;
68976;SDS011;56029;52.568;13.588;2023-10-19T10:21:06;28.00;;;15.25;;
68976;SDS011;56029;52.568;13.588;2023-10-19T10:23:42;29.30;;;16.20;;
68976;SDS011;56029;52.568;13.588;2023-10-19T10:26:10;30.05;;;16.10;;
68976;SDS011;56029;52.568;13.588;2023-10-19T10:28:36;29.25;;;15.35;;
68976;SDS011;56029;52.568;13.588;2023-10-19T10:33:48;30.52;;;15.82;;
68976;SDS011;56029;52.568;13.588;2023-10-19T10:36:15;29.73;;;15.48;;
68976;SDS011;56029;52.568;13.588;2023-10-19T10:38:43;28.30;;;15.15;;
68976;SDS011;56029;52.568;13.588;2023-10-19T10:41:10;31.37;;;15.87;;
68976;SDS011;56029;52.568;13.588;2023-10-19T10:43:52;30.92;;;16.10;;
68976;SDS011;56029;52.568;13.588;2023-10-19T10:46:19;32.22;;;16.25;;
68976;SDS011;56029;52.568;13.588;2023-10-19T10:48:45;31.20;;;15.93;;
68976;SDS011;56029;52.568;13.588;2023-10-19T10:51:15;32.80;;;16.60;;
68976;SDS011;56029;52.568;13.588;2023-10-19T10:53:41;28.83;;;15.70;;
68976;SDS011;56029;52.568;13.588;2023-10-19T10:56:07;29.20;;;15.63;;
68976;SDS011;56029;52.568;13.588;2023-10-19T10:58:32;32.08;;;16.33;;
68976;SDS011;56029;52.568;13.588;2023-10-19T11:00:57;30.53;;;16.10;;
68976;SDS011;56029;52.568;13.588;2023-10-19T11:03:23;31.33;;;15.80;;
68976;SDS011;56029;52.568;13.588;2023-10-19T11:05:49;30.70;;;17.43;;
68976;SDS011;56029;52.568;13.588;2023-10-19T11:08:15;31.40;;;16.50;;
68976;SDS011;56029;52.568;13.588;2023-10-19T11:10:41;30.75;;;16.85;;
68976;SDS011;56029;52.568;13.588;2023-10-19T11:13:11;33.13;;;16.47;;
68976;SDS011;56029;52.568;13.588;2023-10-19T11:16:21;30.13;;;16.42;;
68976;SDS011;56029;52.568;13.588;2023-10-19T11:20:59;34.53;;;17.17;;
68976;SDS011;56029;52.568;13.588;2023-10-19T11:23:39;33.72;;;17.25;;
68976;SDS011;56029;52.568;13.588;2023-10-19T11:26:09;30.87;;;16.57;;
68976;SDS011;56029;52.568;13.588;2023-10-19T11:28:36;33.15;;;17.20;;
68976;SDS011;56029;52.568;13.588;2023-10-19T11:31:18;29.40;;;16.17;;
68976;SDS011;56029;52.568;13.588;2023-10-19T11:33:45;30.63;;;17.35;;
68976;SDS011;56029;52.568;13.588;2023-10-19T11:36:12;31.33;;;16.70;;
68976;SDS011;56029;52.568;13.588;2023-10-19T11:38:47;35.50;;;17.63;;
68976;SDS011;56029;52.568;13.588;2023-10-19T11:41:15;32.40;;;16.98;;
68976;SDS011;56029;52.568;13.588;2023-10-19T11:43:42;31.95;;;17.45;;
68976;SDS011;56029;52.568;13.588;2023-10-19T11:46:09;31.40;;;17.45;;
68976;SDS011;56029;52.568;13.588;2023-10-19T11:48:36;32.85;;;17.60;;
68976;SDS011;56029;52.568;13.588;2023-10-19T11:51:04;31.13;;;17.03;;
68976;SDS011;56029;52.568;13.588;2023-10-19T11:53:31;35.05;;;17.65;;
68976;SDS011;56029;52.568;13.588;2023-10-19T11:55:58;32.53;;;16.50;;
68976;SDS011;56029;52.568;13.588;2023-10-19T11:58:25;29.63;;;16.52;;
68976;SDS011;56029;52.568;13.588;2023-10-19T12:00:50;32.63;;;16.63;;
68976;SDS011;56029;52.568;13.588;2023-10-19T12:03:16;30.53;;;15.97;;
68976;SDS011;56029;52.568;13.588;2023-10-19T12:05:41;33.70;;;16.70;;
68976;SDS011;56029;52.568;13.588;2023-10-19T12:08:07;32.77;;;16.90;;
68976;SDS011;56029;52.568;13.588;2023-10-19T12:10:32;32.28;;;17.67;;
68976;SDS011;56029;52.568;13.588;2023-10-19T12:12:58;30.93;;;17.50;;
68976;SDS011;56029;52.568;13.588;2023-10-19T12:15:24;33.17;;;18.03;;
68976;SDS011;56029;52.568;13.588;2023-10-19T12:17:49;30.88;;;17.70;;
68976;SDS011;56029;52.568;13.588;2023-10-19T12:20:15;32.13;;;17.00;;
68976;SDS011;56029;52.568;13.588;2023-10-19T12:22:40;31.40;;;17.70;;
68976;SDS011;56029;52.568;13.588;2023-10-19T12:25:06;31.33;;;17.23;;
68976;SDS011;56029;52.568;13.588;2023-10-19T12:27:32;32.30;;;17.77;;
68976;SDS011;56029;52.568;13.588;2023-10-19T12:29:57;33.50;;;18.03;;
68976;SDS011;56029;52.568;13.588;2023-10-19T12:32:24;33.08;;;17.95;;
68976;SDS011;56029;52.568;13.588;2023-10-19T12:34:50;31.02;;;17.13;;
68976;SDS011;56029;52.568;13.588;2023-10-19T12:37:16;32.97;;;17.20;;
68976;SDS011;56029;52.568;13.588;2023-10-19T12:39:41;32.40;;;17.57;;
68976;SDS011;56029;52.568;13.588;2023-10-19T12:42:07;31.45;;;17.38;;
68976;SDS011;56029;52.568;13.588;2023-10-19T12:44:33;35.20;;;18.50;;
68976;SDS011;56029;52.568;13.588;2023-10-19T12:46:59;35.95;;;18.67;;
68976;SDS011;56029;52.568;13.588;2023-10-19T12:49:24;33.87;;;17.97;;
68976;SDS011;56029;52.568;13.588;2023-10-19T12:51:50;31.90;;;18.07;;
68976;SDS011;56029;52.568;13.588;2023-10-19T12:54:15;33.93;;;18.73;;
68976;SDS011;56029;52.568;13.588;2023-10-19T12:56:41;36.67;;;18.73;;
68976;SDS011;56029;52.568;13.588;2023-10-19T12:59:06;35.13;;;19.60;;
68976;SDS011;56029;52.568;13.588;2023-10-19T13:01:33;36.25;;;19.05;;
68976;SDS011;56029;52.568;13.588;2023-10-19T13:03:59;34.73;;;18.73;;
68976;SDS011;56029;52.568;13.588;2023-10-19T13:06:25;33.97;;;18.27;;
68976;SDS011;56029;52.568;13.588;2023-10-19T13:08:50;34.40;;;18.70;;
68976;SDS011;56029;52.568;13.588;2023-10-19T13:11:16;32.22;;;18.13;;
68976;SDS011;56029;52.568;13.588;2023-10-19T13:13:41;35.53;;;19.27;;
68976;SDS011;56029;52.568;13.588;2023-10-19T13:16:07;33.90;;;18.53;;
68976;SDS011;56029;52.568;13.588;2023-10-19T13:18:32;32.67;;;18.37;;
68976;SDS011;56029;52.568;13.588;2023-10-19T13:20:58;34.17;;;19.00;;
68976;SDS011;56029;52.568;13.588;2023-10-19T13:23:23;35.10;;;19.23;;
68976;SDS011;56029;52.568;13.588;2023-10-19T13:25:49;38.53;;;18.70;;
68976;SDS011;56029;52.568;13.588;2023-10-19T13:28:15;40.20;;;19.10;;
68976;SDS011;56029;52.568;13.588;2023-10-19T13:30:46;34.47;;;18.80;;
68976;SDS011;56029;52.568;13.588;2023-10-19T13:33:16;33.90;;;18.27;;
68976;SDS011;56029;52.568;13.588;2023-10-19T13:35:43;35.33;;;18.42;;
68976;SDS011;56029;52.568;13.588;2023-10-19T13:38:10;35.67;;;19.95;;
68976;SDS011;56029;52.568;13.588;2023-10-19T13:40:37;39.60;;;19.60;;
68976;SDS011;56029;52.568;13.588;2023-10-19T13:43:03;34.63;;;19.75;;
68976;SDS011;56029;52.568;13.588;2023-10-19T13:45:31;37.20;;;19.45;;
68976;SDS011;56029;52.568;13.588;2023-10-19T13:48:01;37.35;;;19.77;;
68976;SDS011;56029;52.568;13.588;2023-10-19T13:50:30;37.60;;;19.90;;
68976;SDS011;56029;52.568;13.588;2023-10-19T13:52:56;39.70;;;19.73;;
68976;SDS011;56029;52.568;13.588;2023-10-19T13:55:23;36.60;;;19.25;;
68976;SDS011;56029;52.568;13.588;2023-10-19T13:57:49;39.22;;;20.77;;
68976;SDS011;56029;52.568;13.588;2023-10-19T14:00:15;36.33;;;19.63;;
68976;SDS011;56029;52.568;13.588;2023-10-19T14:02:42;37.23;;;19.63;;
68976;SDS011;56029;52.568;13.588;2023-10-19T14:05:07;36.47;;;20.45;;
68976;SDS011;56029;52.568;13.588;2023-10-19T14:07:33;39.87;;;19.93;;
68976;SDS011;56029;52.568;13.588;2023-10-19T14:09:59;37.90;;;19.55;;
68976;SDS011;56029;52.568;13.588;2023-10-19T14:12:24;37.60;;;19.60;;
68976;SDS011;56029;52.568;13.588;2023-10-19T14:14:50;35.80;;;19.27;;
68976;SDS011;56029;52.568;13.588;2023-10-19T14:17:15;36.90;;;19.53;;